Terminal Aerodrome Forecast
Issued by NWS

Home | Current Version | Previous Version | Graphics & Text | Print | Product List | Glossary On
Versions: 1 2 3 4 5 6 7 8 9 10 11 12 13 14 15 16 17 18 19 20 21
000
FTUS41 KCLE 160500
TAFFDY
TAF
KFDY 160521Z 1606/1706 14008KT 6SM -RA BR SCT008 OVC015
      TEMPO 1606/1608 4SM -RA BR SCT015 OVC025
     FM161000 14006KT 4SM -SHRA BR OVC008
     FM161400 24008KT 4SM -SHRA BR OVC006
     FM170000 25010KT 6SM BR OVC008=

USA.gov is the U.S. government's official web portal to all federal, state and local government web resources and services.